Claudville, Virginia
Current Conditions -  °F | °C
As of 10:15 AM on Wednesday 26 Nov 2014 (Local Time) from KMWK Reporting Station
Moderate Rain Moderate Rain  
Wind Chill: 36°   Ceiling: 1500
Heat Index: 40°   Visibility: 3mi
Dew Point: 38°   Wind: 6mph
Humidity: 92%   Direction: 320°NW
Pressure: 30.03"   Gusts: NA
Location:  36.59°N, 80.42°W
Report Text: KMWK 261515Z AUTO 32005KT 3SM RA SCT005 BKN015 OVC019 05/04 A3003 RMK AO2 P0003 T00470035
Loading
Personal Weather Stations






























Interactive Weather Map New forecast layout! Learn more

10-Day Weather Forecast

Advertisements
Track Severe Weather on mobile